Time;durP1;ratioP1;P1;durP2;ratioP2;P2;SDS_P1;SDS_P2;PMS_P1;PMS_P2;Temp;Humidity;BMP_temperature;BMP_pressure;BME280_temperature;BME280_humidity;BME280_pressure;Samples;Min_cycle;Max_cycle;Signal;HPM_P1;HPM_P2
2023/04/15 00:01:19;;;;;;;5.97;4.00;;;7.70;99.90;;;;;;10425646;28;20675;-72
2023/04/15 00:06:21;;;;;;;7.13;3.67;;;7.70;99.90;;;;;;10424524;28;20220;-71
2023/04/15 00:11:23;;;;;;;8.57;3.77;;;7.60;99.90;;;;;;10434046;28;20227;-72
2023/04/15 00:16:24;;;;;;;7.03;3.37;;;7.50;99.90;;;;;;10424247;28;20221;-73
2023/04/15 00:21:25;;;;;;;6.27;3.40;;;7.50;99.90;;;;;;10432154;28;20686;-73
2023/04/15 00:26:26;;;;;;;5.63;3.27;;;7.40;99.90;;;;;;10432855;28;20231;-74
2023/04/15 00:31:27;;;;;;;7.37;4.07;;;7.30;99.90;;;;;;10425440;28;20232;-72
2023/04/15 00:36:27;;;;;;;6.87;3.70;;;7.20;99.90;;;;;;10431788;28;20223;-74
2023/04/15 00:41:28;;;;;;;9.87;3.63;;;7.20;99.90;;;;;;10421451;28;20299;-75
2023/04/15 00:46:30;;;;;;;4.67;3.30;;;7.20;99.90;;;;;;10418144;28;20224;-73
2023/04/15 00:51:32;;;;;;;7.50;3.60;;;7.10;99.90;;;;;;10432090;28;20314;-74
2023/04/15 00:56:37;;;;;;;5.57;3.50;;;7.10;99.90;;;;;;10423166;28;20235;-74
2023/04/15 01:01:38;;;;;;;6.40;3.60;;;7.00;99.90;;;;;;10423365;28;20339;-69
2023/04/15 01:06:38;;;;;;;6.13;3.57;;;7.00;99.90;;;;;;10423318;28;20307;-69
2023/04/15 01:11:43;;;;;;;4.47;3.13;;;6.90;99.90;;;;;;10429652;28;20246;-67
2023/04/15 01:16:44;;;;;;;5.13;3.27;;;6.80;99.90;;;;;;10422036;28;20215;-68
2023/04/15 01:21:45;;;;;;;7.37;3.10;;;6.70;99.90;;;;;;10415892;28;20220;-68
2023/04/15 01:26:48;;;;;;;9.83;3.80;;;6.70;99.90;;;;;;10426999;28;20281;-68
2023/04/15 01:31:53;;;;;;;5.90;3.67;;;6.70;99.90;;;;;;10424848;28;20286;-69
2023/04/15 01:36:54;;;;;;;8.47;3.80;;;6.70;99.90;;;;;;10423964;28;20301;-68
2023/04/15 01:41:56;;;;;;;6.53;3.10;;;6.60;99.90;;;;;;10426293;28;20665;-69
2023/04/15 01:46:57;;;;;;;6.90;3.53;;;6.60;99.90;;;;;;10426848;28;20256;-68
2023/04/15 01:51:57;;;;;;;6.03;3.57;;;6.60;99.90;;;;;;10421996;28;20224;-68
2023/04/15 01:56:58;;;;;;;7.47;3.50;;;6.50;99.90;;;;;;10423967;28;20224;-68
2023/04/15 02:01:59;;;;;;;7.37;3.87;;;6.50;99.90;;;;;;10426131;28;20219;-70
2023/04/15 02:06:59;;;;;;;5.83;3.33;;;6.50;99.90;;;;;;10420470;28;20242;-70
2023/04/15 02:12:00;;;;;;;7.90;3.57;;;6.50;99.90;;;;;;10424569;28;20234;-67
2023/04/15 02:17:06;;;;;;;7.80;3.60;;;6.50;99.90;;;;;;10417703;28;20885;-67
2023/04/15 02:22:08;;;;;;;5.77;3.40;;;6.50;99.90;;;;;;10422450;28;20236;-67
2023/04/15 02:27:08;;;;;;;9.33;4.80;;;6.50;99.90;;;;;;10427226;28;20216;-69
2023/04/15 02:32:10;;;;;;;10.57;4.10;;;6.40;99.90;;;;;;10421477;28;20606;-69
2023/04/15 02:37:12;;;;;;;7.17;3.97;;;6.40;99.90;;;;;;10425635;28;20207;-69
2023/04/15 02:42:12;;;;;;;5.07;3.47;;;6.50;99.90;;;;;;10425074;28;20302;-69
2023/04/15 02:47:14;;;;;;;8.23;3.40;;;6.50;99.90;;;;;;10434435;28;20288;-68
2023/04/15 02:52:15;;;;;;;5.17;3.50;;;6.50;99.90;;;;;;10417686;28;20718;-71
2023/04/15 02:57:16;;;;;;;4.57;3.30;;;6.40;99.90;;;;;;10432789;28;20315;-69
2023/04/15 03:02:16;;;;;;;6.47;3.33;;;6.40;99.90;;;;;;10428063;28;20576;-71
2023/04/15 03:07:18;;;;;;;5.80;3.30;;;6.30;99.90;;;;;;10424562;28;20318;-71
2023/04/15 03:12:19;;;;;;;9.63;3.30;;;6.20;99.90;;;;;;10435017;28;20239;-69
2023/04/15 03:17:19;;;;;;;8.03;4.20;;;6.20;99.90;;;;;;10426303;28;20231;-70
2023/04/15 03:22:20;;;;;;;6.37;3.73;;;6.10;99.90;;;;;;10417515;28;20265;-69
2023/04/15 03:27:21;;;;;;;8.07;4.10;;;6.10;99.90;;;;;;10424315;28;20220;-68
2023/04/15 03:32:21;;;;;;;7.50;3.90;;;6.10;99.90;;;;;;10432062;28;20231;-68
2023/04/15 03:37:22;;;;;;;6.70;3.57;;;6.00;99.90;;;;;;10416068;28;20239;-69
2023/04/15 03:42:22;;;;;;;5.33;3.70;;;6.00;99.90;;;;;;10427394;28;20264;-68
2023/04/15 03:47:23;;;;;;;6.23;3.87;;;6.00;99.90;;;;;;10424495;28;20222;-69
2023/04/15 03:52:23;;;;;;;5.33;3.43;;;5.90;99.90;;;;;;10425612;28;20294;-68
2023/04/15 03:57:27;;;;;;;7.47;4.67;;;5.90;99.90;;;;;;10423900;28;20240;-70
2023/04/15 04:02:27;;;;;;;8.37;4.60;;;5.90;99.90;;;;;;10430382;28;20356;-70
2023/04/15 04:07:28;;;;;;;4.60;3.87;;;5.80;99.90;;;;;;10432494;28;20247;-69
2023/04/15 04:12:29;;;;;;;6.93;3.90;;;5.80;99.90;;;;;;10422021;28;20239;-68
2023/04/15 04:17:30;;;;;;;5.80;3.90;;;5.80;99.90;;;;;;10422798;28;20307;-69
2023/04/15 04:22:30;;;;;;;5.90;3.67;;;5.80;99.90;;;;;;10425207;28;20223;-68
2023/04/15 04:27:31;;;;;;;7.30;4.40;;;5.80;99.90;;;;;;10430068;28;20667;-68
2023/04/15 04:32:31;;;;;;;10.07;3.93;;;5.80;99.90;;;;;;10423507;28;20220;-68
2023/04/15 04:37:32;;;;;;;6.47;4.27;;;5.70;99.90;;;;;;10429107;28;20235;-68
2023/04/15 04:42:33;;;;;;;8.90;4.20;;;5.60;99.90;;;;;;10421970;28;20778;-68
2023/04/15 04:47:33;;;;;;;8.97;4.63;;;5.60;99.90;;;;;;10422689;28;20220;-67
2023/04/15 04:52:34;;;;;;;6.77;4.27;;;5.70;99.90;;;;;;10428939;28;20224;-68
2023/04/15 04:57:34;;;;;;;7.43;4.17;;;5.70;99.90;;;;;;10425806;28;20761;-68
2023/04/15 05:02:45;;;;;;;8.27;4.43;;;5.80;99.90;;;;;;10423089;28;20224;-71
2023/04/15 05:07:49;;;;;;;5.83;4.10;;;5.80;99.90;;;;;;10419121;28;20273;-69
2023/04/15 05:12:50;;;;;;;5.10;3.80;;;5.90;99.90;;;;;;10416371;28;20227;-69
2023/04/15 05:17:51;;;;;;;5.47;3.63;;;5.90;99.90;;;;;;10428588;28;20869;-68
2023/04/15 05:22:51;;;;;;;5.60;3.73;;;6.00;99.90;;;;;;10426647;28;20220;-67
2023/04/15 05:27:55;;;;;;;5.10;3.67;;;6.20;99.90;;;;;;10427464;28;20636;-66
2023/04/15 05:32:56;;;;;;;6.00;4.10;;;6.30;99.90;;;;;;10427451;28;20224;-66
2023/04/15 05:37:56;;;;;;;6.80;3.97;;;6.40;99.90;;;;;;10423381;28;20961;-66
2023/04/15 05:42:57;;;;;;;5.90;4.20;;;6.50;99.90;;;;;;10423935;28;20217;-67
2023/04/15 05:47:57;;;;;;;7.87;4.00;;;6.60;99.90;;;;;;10424273;28;20212;-67
2023/04/15 05:52:58;;;;;;;6.40;3.90;;;6.70;99.90;;;;;;10426025;28;20224;-67
2023/04/15 05:57:58;;;;;;;8.40;4.03;;;6.90;99.90;;;;;;10427496;28;20242;-68
2023/04/15 06:02:59;;;;;;;6.30;3.93;;;7.20;99.90;;;;;;10423547;28;20615;-70
2023/04/15 06:08:00;;;;;;;4.90;3.70;;;7.50;99.90;;;;;;10436770;28;20322;-70
2023/04/15 06:13:02;;;;;;;6.23;3.97;;;7.90;99.90;;;;;;10427675;28;20224;-70
2023/04/15 06:18:04;;;;;;;6.40;3.93;;;8.20;99.90;;;;;;10430299;28;20220;-68
2023/04/15 06:23:05;;;;;;;7.43;4.60;;;8.40;99.90;;;;;;10432779;28;20863;-70
2023/04/15 06:28:05;;;;;;;8.80;4.33;;;8.70;99.90;;;;;;10429954;28;20273;-71
2023/04/15 06:33:06;;;;;;;5.47;4.07;;;8.90;99.90;;;;;;10432842;28;20321;-67
2023/04/15 06:38:06;;;;;;;5.00;4.10;;;9.20;99.90;;;;;;10430645;28;20221;-68
2023/04/15 06:43:08;;;;;;;4.70;3.50;;;9.80;99.90;;;;;;10435944;28;20686;-69
2023/04/15 06:48:08;;;;;;;5.63;4.03;;;10.50;99.90;;;;;;10427149;28;20216;-71
2023/04/15 06:53:09;;;;;;;6.70;4.13;;;11.00;99.90;;;;;;10429860;28;20233;-69
2023/04/15 06:58:09;;;;;;;6.70;4.37;;;11.50;99.90;;;;;;10435713;28;20220;-68
2023/04/15 07:03:11;;;;;;;11.00;5.77;;;12.00;99.90;;;;;;10424716;28;20221;-67
2023/04/15 07:08:12;;;;;;;10.83;5.87;;;12.20;99.90;;;;;;10429964;28;20249;-69
2023/04/15 07:13:13;;;;;;;10.27;5.60;;;12.30;99.90;;;;;;10424750;28;20303;-70
2023/04/15 07:18:21;;;;;;;10.43;6.00;;;12.00;99.90;;;;;;10417856;28;20252;-68
2023/04/15 07:23:22;;;;;;;11.67;5.47;;;12.00;99.90;;;;;;10428882;28;20349;-70
2023/04/15 07:28:23;;;;;;;9.17;4.80;;;12.20;99.90;;;;;;10417530;28;20276;-76
2023/04/15 07:33:23;;;;;;;5.87;4.63;;;12.60;99.90;;;;;;10410946;28;20699;-67
2023/04/15 07:38:24;;;;;;;7.50;4.40;;;13.90;99.90;;;;;;10435355;28;20232;-66
2023/04/15 07:43:25;;;;;;;8.67;6.10;;;16.30;99.90;;;;;;10423180;28;20217;-66
2023/04/15 07:48:25;;;;;;;16.13;7.10;;;17.50;98.50;;;;;;10434241;28;20223;-69
2023/04/15 07:53:26;;;;;;;12.17;6.87;;;18.50;91.80;;;;;;10426662;28;20810;-66
2023/04/15 07:58:27;;;;;;;8.07;5.37;;;18.70;90.40;;;;;;10427006;28;20294;-68
2023/04/15 08:03:27;;;;;;;5.67;4.93;;;19.30;84.80;;;;;;10432639;28;20216;-66
2023/04/15 08:08:28;;;;;;;8.53;5.77;;;20.50;76.10;;;;;;10427299;28;20223;-67
2023/04/15 08:13:28;;;;;;;5.80;5.00;;;19.80;76.40;;;;;;10432693;28;20227;-66
2023/04/15 08:18:29;;;;;;;8.90;5.50;;;19.40;76.40;;;;;;10426167;28;20710;-67
2023/04/15 08:23:30;;;;;;;7.97;5.00;;;20.70;72.10;;;;;;10433279;28;20251;-67
2023/04/15 08:28:30;;;;;;;5.93;5.07;;;21.20;70.40;;;;;;10424094;28;20227;-66
2023/04/15 08:33:31;;;;;;;5.10;4.60;;;20.50;70.60;;;;;;10433630;28;20239;-67
2023/04/15 08:38:32;;;;;;;7.47;5.33;;;19.00;75.20;;;;;;10429868;28;20226;-68
2023/04/15 08:43:34;;;;;;;5.73;5.17;;;18.00;77.40;;;;;;10424575;28;20291;-67
2023/04/15 08:48:38;;;;;;;7.53;4.97;;;17.50;78.40;;;;;;10426328;28;20714;-66
2023/04/15 08:53:38;;;;;;;5.17;4.47;;;17.20;79.40;;;;;;10429454;28;20251;-69
2023/04/15 08:58:40;;;;;;;8.07;4.70;;;17.40;78.00;;;;;;10409405;28;20248;-66
2023/04/15 09:03:41;;;;;;;4.33;3.93;;;16.80;79.60;;;;;;10429507;28;20219;-66
2023/04/15 09:08:42;;;;;;;5.47;4.20;;;16.20;82.40;;;;;;10422178;28;20230;-66
2023/04/15 09:13:43;;;;;;;5.47;4.17;;;16.30;82.40;;;;;;10425567;28;20589;-67
2023/04/15 09:18:43;;;;;;;3.90;3.50;;;16.60;81.80;;;;;;10418767;28;20312;-66
2023/04/15 09:23:58;;;;;;;7.10;3.50;;;17.10;79.90;;;;;;10421658;28;20212;-66
2023/04/15 09:29:08;;;;;;;4.20;3.17;;;17.80;75.40;;;;;;10420049;28;20220;-72
2023/04/15 09:34:09;;;;;;;4.47;3.10;;;17.60;74.20;;;;;;10418343;28;20248;-74
2023/04/15 09:39:10;;;;;;;4.17;2.37;;;18.90;72.70;;;;;;10426508;28;20276;-72
2023/04/15 09:44:26;;;;;;;3.57;2.20;;;19.00;67.60;;;;;;10421253;28;20280;-70
2023/04/15 09:50:40;;;;;;;3.93;2.70;;;18.60;66.00;;;;;;10413630;28;20262;-73
2023/04/15 09:55:33;;;;;;;3.90;2.43;;;18.10;68.00;;;;;;10414048;28;20278;-74
2023/04/15 10:00:35;;;;;;;4.03;2.40;;;17.10;69.20;;;;;;10428702;28;20314;-74
2023/04/15 10:05:37;;;;;;;3.30;2.20;;;16.90;71.40;;;;;;10426629;28;20223;-73
2023/04/15 10:10:38;;;;;;;3.50;2.27;;;17.00;71.70;;;;;;10423762;28;20286;-74
2023/04/15 10:15:42;;;;;;;3.40;2.27;;;16.90;72.60;;;;;;10427886;28;20760;-73
2023/04/15 10:20:43;;;;;;;4.60;2.30;;;16.30;73.60;;;;;;10422912;28;20226;-75
2023/04/15 10:25:45;;;;;;;3.00;2.30;;;15.90;75.50;;;;;;10413608;28;20234;-74
2023/04/15 10:30:48;;;;;;;2.83;2.57;;;15.90;74.30;;;;;;10418030;28;20336;-74
2023/04/15 10:35:50;;;;;;;3.37;2.23;;;15.70;76.60;;;;;;10408121;28;20218;-73
2023/04/15 10:41:16;;;;;;;3.10;2.20;;;15.90;76.20;;;;;;10424414;28;20288;-73
2023/04/15 10:46:20;;;;;;;2.47;2.20;;;16.10;76.40;;;;;;10415627;28;20226;-74
2023/04/15 10:51:29;;;;;;;2.00;1.70;;;15.70;75.60;;;;;;10406193;28;20565;-75
2023/04/15 10:56:30;;;;;;;2.17;1.67;;;15.40;77.70;;;;;;10396280;28;20233;-75
2023/04/15 11:01:58;;;;;;;2.93;2.27;;;15.30;79.90;;;;;;10421253;28;20278;-75
2023/04/15 11:07:08;;;;;;;1.93;1.70;;;15.50;77.80;;;;;;10426359;28;20246;-74
2023/04/15 11:12:09;;;;;;;4.73;1.93;;;15.80;76.70;;;;;;10430065;28;20235;-74
2023/04/15 11:17:13;;;;;;;3.10;1.97;;;15.50;77.10;;;;;;10426377;28;20222;-74
2023/04/15 11:22:13;;;;;;;3.20;1.70;;;15.60;78.50;;;;;;10421481;28;20224;-75
2023/04/15 11:27:23;;;;;;;3.50;1.73;;;15.70;78.20;;;;;;10418554;28;20226;-74
2023/04/15 11:32:24;;;;;;;2.43;1.70;;;15.90;76.80;;;;;;10401582;28;20230;-74
2023/04/15 11:37:29;;;;;;;4.13;1.77;;;16.00;77.00;;;;;;10428366;28;20574;-74
2023/04/15 11:42:29;;;;;;;1.70;1.47;;;16.20;76.50;;;;;;10409714;28;20270;-73
2023/04/15 11:47:30;;;;;;;1.60;1.50;;;16.70;74.20;;;;;;10431315;28;20220;-75
2023/04/15 11:52:31;;;;;;;1.83;1.47;;;16.70;73.70;;;;;;10429011;28;20308;-75
2023/04/15 11:57:31;;;;;;;4.13;1.70;;;16.90;73.20;;;;;;10434763;28;20229;-74
2023/04/15 12:02:36;;;;;;;2.23;1.40;;;17.90;70.50;;;;;;10425271;28;20220;-73
2023/04/15 12:07:58;;;;;;;1.30;1.20;;;17.80;72.00;;;;;;10426613;28;20219;-75
2023/04/15 12:13:08;;;;;;;0.97;0.70;;;17.40;66.80;;;;;;10417806;28;20232;-74
2023/04/15 12:18:17;;;;;;;1.40;0.70;;;16.90;66.40;;;;;;10419505;28;20677;-74
2023/04/15 12:23:20;;;;;;;3.47;1.20;;;16.70;68.60;;;;;;10424738;28;20234;-73
2023/04/15 12:28:21;;;;;;;1.57;0.80;;;16.50;70.80;;;;;;10417236;28;20251;-73
2023/04/15 12:33:22;;;;;;;1.70;0.87;;;16.40;74.10;;;;;;10429417;28;20346;-72
2023/04/15 12:38:22;;;;;;;1.83;1.10;;;16.70;73.40;;;;;;10422895;28;20306;-72
2023/04/15 12:43:23;;;;;;;3.07;1.90;;;16.60;74.30;;;;;;10420741;28;20595;-73
2023/04/15 12:48:24;;;;;;;3.63;2.50;;;15.80;87.20;;;;;;10433713;28;20245;-72
2023/04/15 12:53:25;;;;;;;2.73;2.47;;;15.00;91.90;;;;;;10417253;28;20286;-71
2023/04/15 12:58:26;;;;;;;4.40;2.50;;;14.30;94.50;;;;;;10430065;28;20222;-72
2023/04/15 13:03:26;;;;;;;3.57;2.60;;;14.00;97.00;;;;;;10424372;28;20595;-72
2023/04/15 13:08:27;;;;;;;3.00;2.70;;;14.10;98.80;;;;;;10422590;28;20219;-70
2023/04/15 13:13:28;;;;;;;3.63;2.37;;;14.30;99.30;;;;;;10427399;28;20266;-73
2023/04/15 13:18:30;;;;;;;4.13;2.63;;;14.40;99.90;;;;;;10405833;28;20888;-74
2023/04/15 13:23:30;;;;;;;2.03;1.80;;;14.50;99.90;;;;;;10426630;28;20222;-72
2023/04/15 13:28:31;;;;;;;2.20;2.00;;;14.30;99.90;;;;;;10418347;28;20731;-72
2023/04/15 13:33:33;;;;;;;2.37;2.00;;;14.30;99.90;;;;;;10424107;28;20227;-72
2023/04/15 13:38:34;;;;;;;2.13;1.90;;;13.90;99.90;;;;;;10419536;28;20310;-73
2023/04/15 13:43:34;;;;;;;1.87;1.57;;;13.90;99.90;;;;;;10413957;28;20285;-71
2023/04/15 13:48:35;;;;;;;1.87;1.67;;;14.00;99.90;;;;;;10414419;28;20232;-75
2023/04/15 13:53:36;;;;;;;1.40;1.23;;;13.90;99.90;;;;;;10417716;28;20230;-74
2023/04/15 13:58:37;;;;;;;1.57;1.10;;;14.00;99.90;;;;;;10424208;28;20269;-75
2023/04/15 14:03:39;;;;;;;1.10;1.00;;;14.20;99.90;;;;;;10418577;28;20219;-75
2023/04/15 14:08:39;;;;;;;1.37;1.20;;;14.00;99.90;;;;;;10422973;28;20225;-75
2023/04/15 14:13:40;;;;;;;1.20;1.10;;;13.70;99.90;;;;;;10427480;28;20285;-73
2023/04/15 14:18:43;;;;;;;1.63;1.00;;;13.80;99.90;;;;;;10424614;28;20354;-74
2023/04/15 14:23:44;;;;;;;0.73;0.70;;;14.00;99.90;;;;;;10428117;28;20539;-75
2023/04/15 14:28:44;;;;;;;0.90;0.80;;;14.00;99.90;;;;;;10420079;28;20222;-76
2023/04/15 14:33:45;;;;;;;1.17;0.80;;;13.90;99.90;;;;;;10423727;28;20739;-75
2023/04/15 14:38:46;;;;;;;0.80;0.80;;;13.70;99.90;;;;;;10433385;28;20242;-71
2023/04/15 14:43:46;;;;;;;0.60;0.60;;;13.40;99.90;;;;;;10428370;28;20218;-74
2023/04/15 14:48:48;;;;;;;0.73;0.73;;;13.40;99.90;;;;;;10428738;28;20224;-72
2023/04/15 14:53:49;;;;;;;0.53;0.53;;;13.20;99.90;;;;;;10432509;28;20216;-73
2023/04/15 14:58:53;;;;;;;0.70;0.70;;;12.90;99.90;;;;;;10428734;28;20594;-73
2023/04/15 15:03:53;;;;;;;1.03;0.90;;;12.80;99.90;;;;;;10430082;28;20225;-71
2023/04/15 15:08:54;;;;;;;1.30;0.97;;;12.80;99.90;;;;;;10421881;28;20217;-70
2023/04/15 15:13:55;;;;;;;1.10;1.10;;;12.60;99.90;;;;;;10414056;28;20711;-72
2023/04/15 15:18:56;;;;;;;2.90;2.60;;;12.60;99.90;;;;;;10427561;28;20629;-69
2023/04/15 15:23:57;;;;;;;2.27;1.40;;;12.60;99.90;;;;;;10421432;28;20212;-69
2023/04/15 15:28:57;;;;;;;0.93;0.93;;;12.40;99.90;;;;;;10432516;28;20220;-68
2023/04/15 15:33:58;;;;;;;1.30;1.20;;;12.30;99.90;;;;;;10419835;28;20250;-68
2023/04/15 15:38:59;;;;;;;1.70;1.17;;;12.30;99.90;;;;;;10428208;28;20831;-69
2023/04/15 15:43:59;;;;;;;2.10;1.17;;;12.30;99.90;;;;;;10432526;28;20730;-69
2023/04/15 15:49:02;;;;;;;0.93;0.93;;;12.30;99.90;;;;;;10424147;28;20306;-68
2023/04/15 15:54:02;;;;;;;0.90;0.90;;;12.30;99.90;;;;;;10421815;28;20225;-71
2023/04/15 15:59:03;;;;;;;0.97;0.83;;;12.30;99.90;;;;;;10432841;28;20216;-67
2023/04/15 16:04:04;;;;;;;1.10;1.10;;;12.30;99.90;;;;;;10430085;28;20235;-67
2023/04/15 16:09:05;;;;;;;0.93;0.90;;;12.30;99.90;;;;;;10432770;28;20220;-67
2023/04/15 16:14:05;;;;;;;1.30;1.20;;;12.30;99.90;;;;;;10429057;28;20282;-67
2023/04/15 16:19:06;;;;;;;1.73;1.47;;;12.20;99.90;;;;;;10415989;28;20687;-65
2023/04/15 16:24:06;;;;;;;3.90;1.80;;;12.00;99.90;;;;;;10427951;28;20212;-65
2023/04/15 16:29:07;;;;;;;1.60;1.50;;;12.00;99.90;;;;;;10432799;28;20213;-69
2023/04/15 16:34:08;;;;;;;2.20;2.00;;;11.80;99.90;;;;;;10416347;28;20819;-68
2023/04/15 16:39:09;;;;;;;2.00;1.90;;;11.50;99.90;;;;;;10426701;28;20216;-68
2023/04/15 16:44:09;;;;;;;2.83;2.40;;;11.30;99.90;;;;;;10426619;28;20224;-68
2023/04/15 16:49:10;;;;;;;2.53;2.23;;;11.30;99.90;;;;;;10428646;28;20216;-68
2023/04/15 16:54:11;;;;;;;3.03;2.20;;;11.30;99.90;;;;;;10427239;28;20282;-68
2023/04/15 16:59:11;;;;;;;2.50;2.27;;;11.30;99.90;;;;;;10423179;28;20719;-67
2023/04/15 17:04:12;;;;;;;3.20;2.73;;;11.20;99.90;;;;;;10421452;28;20777;-69
2023/04/15 17:09:13;;;;;;;2.80;2.60;;;11.20;99.90;;;;;;10421735;28;20311;-67
2023/04/15 17:14:13;;;;;;;3.30;2.73;;;11.00;99.90;;;;;;10420872;28;20212;-67
2023/04/15 17:19:14;;;;;;;3.70;2.93;;;11.00;99.90;;;;;;10421936;28;20211;-67
2023/04/15 17:24:14;;;;;;;3.37;3.07;;;10.90;99.90;;;;;;10423556;28;20216;-68
2023/04/15 17:29:27;;;;;;;4.63;3.27;;;10.90;99.90;;;;;;10419216;28;20220;-72
2023/04/15 17:34:28;;;;;;;3.00;2.67;;;10.80;99.90;;;;;;10430373;28;20322;-71
2023/04/15 17:39:29;;;;;;;3.70;3.30;;;10.80;99.90;;;;;;10429228;28;20243;-68
2023/04/15 17:44:29;;;;;;;5.10;4.60;;;10.70;99.90;;;;;;10419825;28;20220;-69
2023/04/15 17:49:32;;;;;;;3.97;3.53;;;10.70;99.90;;;;;;10428947;28;20270;-70
2023/04/15 17:54:34;;;;;;;4.20;3.47;;;10.70;99.90;;;;;;10421914;28;20315;-70
2023/04/15 17:59:35;;;;;;;3.73;3.27;;;10.70;99.90;;;;;;10429131;28;20707;-69
2023/04/15 18:04:35;;;;;;;3.57;3.27;;;10.70;99.90;;;;;;10419473;28;20216;-68
2023/04/15 18:09:36;;;;;;;4.00;3.60;;;10.70;99.90;;;;;;10428480;28;20224;-70
2023/04/15 18:14:36;;;;;;;4.10;3.53;;;10.60;99.90;;;;;;10424530;28;20230;-69
2023/04/15 18:19:37;;;;;;;4.40;3.77;;;10.60;99.90;;;;;;10428776;28;20302;-69
2023/04/15 18:24:38;;;;;;;4.17;3.77;;;10.70;99.90;;;;;;10414825;28;20221;-70
2023/04/15 18:29:38;;;;;;;4.23;3.83;;;10.60;99.90;;;;;;10429579;28;20254;-69
2023/04/15 18:34:39;;;;;;;4.30;3.90;;;10.60;99.90;;;;;;10423907;28;20691;-69
2023/04/15 18:39:39;;;;;;;4.33;3.93;;;10.60;99.90;;;;;;10428766;28;20613;-69
2023/04/15 18:44:40;;;;;;;4.63;3.97;;;10.60;99.90;;;;;;10423780;28;20216;-69
2023/04/15 18:49:41;;;;;;;4.63;4.03;;;10.60;99.90;;;;;;10417996;28;20822;-69
2023/04/15 18:54:41;;;;;;;4.80;4.40;;;10.60;99.90;;;;;;10426807;28;20315;-69
2023/04/15 18:59:42;;;;;;;4.57;4.17;;;10.50;99.90;;;;;;10420707;28;20222;-69
2023/04/15 19:04:42;;;;;;;4.73;4.13;;;10.50;99.90;;;;;;10413661;28;20224;-68
2023/04/15 19:09:43;;;;;;;4.77;4.13;;;10.50;99.90;;;;;;10418418;28;20599;-69
2023/04/15 19:14:43;;;;;;;4.83;4.43;;;10.40;99.90;;;;;;10424552;28;20217;-69
2023/04/15 19:19:44;;;;;;;5.07;4.57;;;10.40;99.90;;;;;;10424895;28;20216;-70
2023/04/15 19:24:45;;;;;;;4.77;4.37;;;10.40;99.90;;;;;;10429830;28;20209;-69
2023/04/15 19:29:45;;;;;;;5.40;4.90;;;10.40;99.90;;;;;;10433163;28;20243;-68
2023/04/15 19:34:47;;;;;;;4.90;4.50;;;10.30;99.90;;;;;;10434249;28;20664;-68
2023/04/15 19:39:47;;;;;;;5.20;4.50;;;10.30;99.90;;;;;;10428246;28;20290;-69
2023/04/15 19:44:48;;;;;;;5.07;4.50;;;10.30;99.90;;;;;;10432785;28;20307;-70
2023/04/15 19:49:50;;;;;;;4.20;3.90;;;10.20;99.90;;;;;;10436148;28;20765;-70
2023/04/15 19:54:50;;;;;;;5.00;4.50;;;10.20;99.90;;;;;;10429971;28;20232;-70
2023/04/15 19:59:51;;;;;;;4.87;4.37;;;10.30;99.90;;;;;;10431970;28;20217;-69
2023/04/15 20:04:51;;;;;;;5.03;4.53;;;10.20;99.90;;;;;;10431181;28;20220;-70
2023/04/15 20:09:52;;;;;;;4.97;4.43;;;10.20;99.90;;;;;;10432847;28;20224;-67
2023/04/15 20:14:52;;;;;;;4.67;4.17;;;10.20;99.90;;;;;;10431657;28;20561;-69
2023/04/15 20:19:53;;;;;;;4.63;4.23;;;10.20;99.90;;;;;;10428838;28;20227;-68
2023/04/15 20:24:54;;;;;;;5.20;4.70;;;10.20;99.90;;;;;;10438994;28;20306;-69
2023/04/15 20:29:54;;;;;;;4.33;3.93;;;10.20;99.90;;;;;;10431439;28;20303;-68
2023/04/15 20:34:55;;;;;;;4.47;4.03;;;10.20;99.90;;;;;;10429614;28;20231;-68
2023/04/15 20:39:55;;;;;;;4.53;4.13;;;10.20;99.90;;;;;;10430355;28;20242;-69
2023/04/15 20:44:56;;;;;;;4.30;3.90;;;10.20;99.90;;;;;;10418468;28;20590;-70
2023/04/15 20:49:56;;;;;;;4.50;4.10;;;10.20;99.90;;;;;;10425682;28;20310;-69
2023/04/15 20:54:57;;;;;;;4.20;3.80;;;10.30;99.90;;;;;;10428955;28;20235;-70
2023/04/15 20:59:57;;;;;;;5.43;4.40;;;10.20;99.90;;;;;;10427186;28;20269;-69
2023/04/15 21:04:58;;;;;;;3.87;3.53;;;10.20;99.90;;;;;;10420610;28;20231;-67
2023/04/15 21:09:59;;;;;;;3.77;3.43;;;10.20;99.90;;;;;;10411616;28;20216;-69
2023/04/15 21:15:00;;;;;;;4.20;3.80;;;10.20;99.90;;;;;;10428970;28;20234;-69
2023/04/15 21:20:01;;;;;;;3.87;3.47;;;10.20;99.90;;;;;;10426263;28;20223;-69
2023/04/15 21:25:02;;;;;;;3.70;3.40;;;10.20;99.90;;;;;;10418088;28;20710;-70
2023/04/15 21:30:03;;;;;;;3.80;3.40;;;10.20;99.90;;;;;;10429080;28;20219;-69
2023/04/15 21:35:04;;;;;;;3.40;3.10;;;10.10;99.90;;;;;;10426287;28;20224;-69
2023/04/15 21:40:05;;;;;;;3.47;3.17;;;10.10;99.90;;;;;;10428262;28;20228;-70
2023/04/15 21:45:06;;;;;;;3.00;2.70;;;10.10;99.90;;;;;;10426410;28;20266;-70
2023/04/15 21:50:07;;;;;;;3.27;2.93;;;10.10;99.90;;;;;;10411229;28;20234;-71
2023/04/15 21:55:08;;;;;;;3.37;2.80;;;10.10;99.90;;;;;;10422833;28;20251;-70
2023/04/15 22:00:09;;;;;;;3.23;2.77;;;10.10;99.90;;;;;;10426291;28;20200;-69
2023/04/15 22:05:10;;;;;;;3.73;3.00;;;10.10;99.90;;;;;;10424292;28;20185;-68
2023/04/15 22:10:11;;;;;;;3.77;3.17;;;10.10;99.90;;;;;;10428924;28;20636;-68
2023/04/15 22:15:11;;;;;;;3.40;3.10;;;10.20;99.90;;;;;;10421932;28;20324;-70
2023/04/15 22:20:12;;;;;;;4.63;3.13;;;10.10;99.90;;;;;;10427631;28;20184;-68
2023/04/15 22:25:13;;;;;;;3.37;3.07;;;10.20;99.90;;;;;;10429304;28;20211;-68
2023/04/15 22:30:14;;;;;;;3.47;3.17;;;10.20;99.90;;;;;;10421797;28;20188;-69
2023/04/15 22:35:17;;;;;;;4.37;3.90;;;10.10;99.90;;;;;;10428785;28;20304;-68
2023/04/15 22:40:18;;;;;;;4.27;3.87;;;10.10;99.90;;;;;;10422857;28;20207;-68
2023/04/15 22:45:19;;;;;;;5.87;3.60;;;10.10;99.90;;;;;;10427767;28;20188;-69
2023/04/15 22:50:20;;;;;;;4.27;3.87;;;10.00;99.90;;;;;;10420692;28;20189;-68
2023/04/15 22:55:20;;;;;;;4.07;3.67;;;10.00;99.90;;;;;;10424595;28;20682;-70
2023/04/15 23:00:21;;;;;;;4.73;3.70;;;10.00;99.90;;;;;;10433860;28;20655;-68
2023/04/15 23:05:22;;;;;;;4.13;3.73;;;10.00;99.90;;;;;;10428181;28;20243;-69
2023/04/15 23:10:23;;;;;;;4.83;3.70;;;10.00;99.90;;;;;;10420541;28;20208;-68
2023/04/15 23:15:24;;;;;;;4.20;3.70;;;10.00;99.90;;;;;;10422833;28;20275;-69
2023/04/15 23:20:24;;;;;;;4.83;3.90;;;10.00;99.90;;;;;;10428949;28;20651;-69
2023/04/15 23:25:25;;;;;;;4.93;4.37;;;10.00;99.90;;;;;;10428708;28;20224;-69
2023/04/15 23:30:26;;;;;;;5.70;4.33;;;9.90;99.90;;;;;;10428920;28;20294;-68
2023/04/15 23:35:29;;;;;;;6.80;4.40;;;9.80;99.90;;;;;;10436005;28;20268;-69
2023/04/15 23:40:30;;;;;;;5.23;4.73;;;9.80;99.90;;;;;;10428941;28;20216;-69
2023/04/15 23:45:31;;;;;;;6.20;4.90;;;9.80;99.90;;;;;;10433004;28;20216;-68
2023/04/15 23:50:34;;;;;;;5.73;4.83;;;9.80;99.90;;;;;;10425487;28;20224;-69
2023/04/15 23:55:35;;;;;;;6.80;5.50;;;9.80;99.90;;;;;;10433924;28;20369;-68
